sensor_id;sensor_type;location;lat;lon;timestamp;P1;durP1;ratioP1;P2;durP2;ratioP2
11524;SDS011;5819;49.648;8.330;2023-05-02T00:02:10;4.07;;;3.78;;
11524;SDS011;5819;49.648;8.330;2023-05-02T00:04:40;3.95;;;3.65;;
11524;SDS011;5819;49.648;8.330;2023-05-02T00:07:08;4.97;;;4.45;;
11524;SDS011;5819;49.648;8.330;2023-05-02T00:09:37;4.72;;;3.92;;
11524;SDS011;5819;49.648;8.330;2023-05-02T00:12:05;4.82;;;3.50;;
11524;SDS011;5819;49.648;8.330;2023-05-02T00:14:32;6.40;;;4.13;;
11524;SDS011;5819;49.648;8.330;2023-05-02T00:17:00;4.30;;;4.00;;
11524;SDS011;5819;49.648;8.330;2023-05-02T00:19:29;4.03;;;3.67;;
11524;SDS011;5819;49.648;8.330;2023-05-02T00:21:59;4.35;;;3.95;;
11524;SDS011;5819;49.648;8.330;2023-05-02T00:24:26;4.43;;;4.03;;
11524;SDS011;5819;49.648;8.330;2023-05-02T00:26:54;5.50;;;4.28;;
11524;SDS011;5819;49.648;8.330;2023-05-02T00:29:22;4.72;;;4.32;;
11524;SDS011;5819;49.648;8.330;2023-05-02T00:31:49;4.68;;;4.28;;
11524;SDS011;5819;49.648;8.330;2023-05-02T00:34:17;5.22;;;4.22;;
11524;SDS011;5819;49.648;8.330;2023-05-02T00:36:46;5.32;;;4.40;;
11524;SDS011;5819;49.648;8.330;2023-05-02T00:39:16;4.90;;;4.50;;
11524;SDS011;5819;49.648;8.330;2023-05-02T00:41:45;5.20;;;4.70;;
11524;SDS011;5819;49.648;8.330;2023-05-02T00:44:13;4.63;;;4.22;;
11524;SDS011;5819;49.648;8.330;2023-05-02T00:46:41;5.07;;;4.60;;
11524;SDS011;5819;49.648;8.330;2023-05-02T00:49:09;5.05;;;4.65;;
11524;SDS011;5819;49.648;8.330;2023-05-02T00:51:37;5.88;;;5.28;;
11524;SDS011;5819;49.648;8.330;2023-05-02T00:54:06;5.47;;;4.97;;
11524;SDS011;5819;49.648;8.330;2023-05-02T00:56:36;5.40;;;4.90;;
11524;SDS011;5819;49.648;8.330;2023-05-02T00:59:04;5.63;;;5.20;;
11524;SDS011;5819;49.648;8.330;2023-05-02T01:01:37;6.15;;;5.47;;
11524;SDS011;5819;49.648;8.330;2023-05-02T01:04:17;5.00;;;4.53;;
11524;SDS011;5819;49.648;8.330;2023-05-02T01:06:58;7.03;;;5.63;;
11524;SDS011;5819;49.648;8.330;2023-05-02T01:09:36;5.97;;;5.47;;
11524;SDS011;5819;49.648;8.330;2023-05-02T01:12:18;6.55;;;5.95;;
11524;SDS011;5819;49.648;8.330;2023-05-02T01:14:54;7.70;;;5.95;;
11524;SDS011;5819;49.648;8.330;2023-05-02T01:17:26;6.72;;;6.07;;
11524;SDS011;5819;49.648;8.330;2023-05-02T01:19:58;7.65;;;6.15;;
11524;SDS011;5819;49.648;8.330;2023-05-02T01:22:30;6.55;;;5.95;;
11524;SDS011;5819;49.648;8.330;2023-05-02T01:25:02;6.70;;;6.07;;
11524;SDS011;5819;49.648;8.330;2023-05-02T01:27:39;6.95;;;6.38;;
11524;SDS011;5819;49.648;8.330;2023-05-02T01:30:16;7.72;;;7.03;;
11524;SDS011;5819;49.648;8.330;2023-05-02T01:32:47;7.22;;;6.63;;
11524;SDS011;5819;49.648;8.330;2023-05-02T01:35:19;7.75;;;7.05;;
11524;SDS011;5819;49.648;8.330;2023-05-02T01:37:49;8.35;;;6.85;;
11524;SDS011;5819;49.648;8.330;2023-05-02T01:40:19;8.30;;;7.50;;
11524;SDS011;5819;49.648;8.330;2023-05-02T01:42:50;8.10;;;7.40;;
11524;SDS011;5819;49.648;8.330;2023-05-02T01:45:22;9.00;;;8.20;;
11524;SDS011;5819;49.648;8.330;2023-05-02T01:47:52;9.77;;;8.88;;
11524;SDS011;5819;49.648;8.330;2023-05-02T01:50:23;9.73;;;8.80;;
11524;SDS011;5819;49.648;8.330;2023-05-02T01:52:52;10.18;;;9.27;;
11524;SDS011;5819;49.648;8.330;2023-05-02T01:55:21;10.90;;;9.80;;
11524;SDS011;5819;49.648;8.330;2023-05-02T01:57:51;12.00;;;9.90;;
11524;SDS011;5819;49.648;8.330;2023-05-02T02:00:24;10.45;;;9.40;;
11524;SDS011;5819;49.648;8.330;2023-05-02T02:02:54;10.50;;;9.60;;
11524;SDS011;5819;49.648;8.330;2023-05-02T02:05:24;11.65;;;10.45;;
11524;SDS011;5819;49.648;8.330;2023-05-02T02:07:54;11.05;;;10.07;;
11524;SDS011;5819;49.648;8.330;2023-05-02T02:10:22;10.85;;;9.77;;
11524;SDS011;5819;49.648;8.330;2023-05-02T02:12:57;11.60;;;10.52;;
11524;SDS011;5819;49.648;8.330;2023-05-02T02:15:33;11.23;;;10.23;;
11524;SDS011;5819;49.648;8.330;2023-05-02T02:18:04;11.10;;;10.10;;
11524;SDS011;5819;49.648;8.330;2023-05-02T02:20:36;11.40;;;10.40;;
11524;SDS011;5819;49.648;8.330;2023-05-02T02:23:09;11.45;;;10.35;;
11524;SDS011;5819;49.648;8.330;2023-05-02T02:25:39;12.30;;;11.20;;
11524;SDS011;5819;49.648;8.330;2023-05-02T02:28:08;12.40;;;11.18;;
11524;SDS011;5819;49.648;8.330;2023-05-02T02:30:37;13.82;;;12.43;;
11524;SDS011;5819;49.648;8.330;2023-05-02T02:33:05;12.30;;;11.10;;
11524;SDS011;5819;49.648;8.330;2023-05-02T02:35:34;13.68;;;12.35;;
11524;SDS011;5819;49.648;8.330;2023-05-02T02:38:09;13.80;;;12.45;;
11524;SDS011;5819;49.648;8.330;2023-05-02T02:40:43;13.57;;;12.38;;
11524;SDS011;5819;49.648;8.330;2023-05-02T02:43:16;13.02;;;11.82;;
11524;SDS011;5819;49.648;8.330;2023-05-02T02:45:54;13.15;;;11.85;;
11524;SDS011;5819;49.648;8.330;2023-05-02T02:48:31;14.00;;;12.68;;
11524;SDS011;5819;49.648;8.330;2023-05-02T02:51:05;13.85;;;12.45;;
11524;SDS011;5819;49.648;8.330;2023-05-02T02:53:42;14.52;;;13.13;;
11524;SDS011;5819;49.648;8.330;2023-05-02T02:56:21;14.45;;;12.95;;
11524;SDS011;5819;49.648;8.330;2023-05-02T02:58:56;14.40;;;13.10;;
11524;SDS011;5819;49.648;8.330;2023-05-02T03:01:31;14.63;;;13.23;;
11524;SDS011;5819;49.648;8.330;2023-05-02T03:04:01;14.93;;;13.43;;
11524;SDS011;5819;49.648;8.330;2023-05-02T03:06:35;15.60;;;14.10;;
11524;SDS011;5819;49.648;8.330;2023-05-02T03:09:04;16.88;;;15.20;;
11524;SDS011;5819;49.648;8.330;2023-05-02T03:11:32;16.50;;;14.82;;
11524;SDS011;5819;49.648;8.330;2023-05-02T03:14:00;17.00;;;15.25;;
11524;SDS011;5819;49.648;8.330;2023-05-02T03:16:31;17.27;;;15.50;;
11524;SDS011;5819;49.648;8.330;2023-05-02T03:19:04;16.85;;;15.35;;
11524;SDS011;5819;49.648;8.330;2023-05-02T03:21:33;18.58;;;16.75;;
11524;SDS011;5819;49.648;8.330;2023-05-02T03:24:09;19.42;;;17.08;;
11524;SDS011;5819;49.648;8.330;2023-05-02T03:26:37;19.73;;;17.80;;
11524;SDS011;5819;49.648;8.330;2023-05-02T03:29:08;20.80;;;18.80;;
11524;SDS011;5819;49.648;8.330;2023-05-02T03:31:40;22.13;;;19.80;;
11524;SDS011;5819;49.648;8.330;2023-05-02T03:34:10;22.80;;;20.40;;
11524;SDS011;5819;49.648;8.330;2023-05-02T03:36:39;22.00;;;19.73;;
11524;SDS011;5819;49.648;8.330;2023-05-02T03:39:07;23.42;;;20.98;;
11524;SDS011;5819;49.648;8.330;2023-05-02T03:41:36;21.23;;;19.10;;
11524;SDS011;5819;49.648;8.330;2023-05-02T03:44:08;21.13;;;19.13;;
11524;SDS011;5819;49.648;8.330;2023-05-02T03:46:36;21.08;;;18.98;;
11524;SDS011;5819;49.648;8.330;2023-05-02T03:49:08;21.48;;;19.30;;
11524;SDS011;5819;49.648;8.330;2023-05-02T03:51:39;23.27;;;20.90;;
11524;SDS011;5819;49.648;8.330;2023-05-02T03:54:08;22.63;;;20.40;;
11524;SDS011;5819;49.648;8.330;2023-05-02T03:56:39;24.15;;;21.50;;
11524;SDS011;5819;49.648;8.330;2023-05-02T03:59:18;24.63;;;22.08;;
11524;SDS011;5819;49.648;8.330;2023-05-02T04:01:47;23.52;;;21.23;;
11524;SDS011;5819;49.648;8.330;2023-05-02T04:04:18;25.20;;;22.60;;
11524;SDS011;5819;49.648;8.330;2023-05-02T04:06:49;26.17;;;23.35;;
11524;SDS011;5819;49.648;8.330;2023-05-02T04:09:17;27.25;;;24.45;;
11524;SDS011;5819;49.648;8.330;2023-05-02T04:11:55;27.52;;;24.30;;
11524;SDS011;5819;49.648;8.330;2023-05-02T04:14:23;27.17;;;24.50;;
11524;SDS011;5819;49.648;8.330;2023-05-02T04:16:53;25.77;;;23.10;;
11524;SDS011;5819;49.648;8.330;2023-05-02T04:19:37;26.45;;;23.65;;
11524;SDS011;5819;49.648;8.330;2023-05-02T04:22:06;26.90;;;24.10;;
11524;SDS011;5819;49.648;8.330;2023-05-02T04:24:38;27.48;;;24.60;;
11524;SDS011;5819;49.648;8.330;2023-05-02T04:27:06;28.55;;;25.55;;
11524;SDS011;5819;49.648;8.330;2023-05-02T04:29:35;28.50;;;25.75;;
11524;SDS011;5819;49.648;8.330;2023-05-02T04:32:05;29.30;;;26.27;;
11524;SDS011;5819;49.648;8.330;2023-05-02T04:34:34;30.83;;;27.65;;
11524;SDS011;5819;49.648;8.330;2023-05-02T04:37:04;31.65;;;27.77;;
11524;SDS011;5819;49.648;8.330;2023-05-02T04:39:33;32.47;;;29.05;;
11524;SDS011;5819;49.648;8.330;2023-05-02T04:42:07;32.85;;;28.70;;
11524;SDS011;5819;49.648;8.330;2023-05-02T04:44:42;33.85;;;30.35;;
11524;SDS011;5819;49.648;8.330;2023-05-02T04:47:10;34.08;;;30.33;;
11524;SDS011;5819;49.648;8.330;2023-05-02T04:49:38;36.13;;;31.05;;
11524;SDS011;5819;49.648;8.330;2023-05-02T04:52:07;36.30;;;31.33;;
11524;SDS011;5819;49.648;8.330;2023-05-02T04:54:36;34.28;;;30.67;;
11524;SDS011;5819;49.648;8.330;2023-05-02T04:57:04;36.47;;;32.03;;
11524;SDS011;5819;49.648;8.330;2023-05-02T04:59:35;37.90;;;33.83;;
11524;SDS011;5819;49.648;8.330;2023-05-02T05:02:04;36.03;;;32.15;;
11524;SDS011;5819;49.648;8.330;2023-05-02T05:04:34;38.95;;;33.85;;
11524;SDS011;5819;49.648;8.330;2023-05-02T05:07:02;38.05;;;33.92;;
11524;SDS011;5819;49.648;8.330;2023-05-02T05:09:31;38.95;;;34.70;;
11524;SDS011;5819;49.648;8.330;2023-05-02T05:12:00;42.90;;;34.63;;
11524;SDS011;5819;49.648;8.330;2023-05-02T05:14:30;40.83;;;36.10;;
11524;SDS011;5819;49.648;8.330;2023-05-02T05:16:58;42.75;;;37.53;;
11524;SDS011;5819;49.648;8.330;2023-05-02T05:19:26;42.90;;;36.08;;
11524;SDS011;5819;49.648;8.330;2023-05-02T05:21:56;49.95;;;40.58;;
11524;SDS011;5819;49.648;8.330;2023-05-02T05:24:24;49.22;;;39.70;;
11524;SDS011;5819;49.648;8.330;2023-05-02T05:26:56;46.45;;;39.20;;
11524;SDS011;5819;49.648;8.330;2023-05-02T05:29:24;49.85;;;40.85;;
11524;SDS011;5819;49.648;8.330;2023-05-02T05:31:52;53.83;;;43.20;;
11524;SDS011;5819;49.648;8.330;2023-05-02T05:34:21;51.70;;;42.97;;
11524;SDS011;5819;49.648;8.330;2023-05-02T05:36:52;56.45;;;46.38;;
11524;SDS011;5819;49.648;8.330;2023-05-02T05:39:20;58.50;;;46.55;;
11524;SDS011;5819;49.648;8.330;2023-05-02T05:41:51;54.63;;;44.55;;
11524;SDS011;5819;49.648;8.330;2023-05-02T05:44:22;54.88;;;44.50;;
11524;SDS011;5819;49.648;8.330;2023-05-02T05:46:51;61.60;;;47.25;;
11524;SDS011;5819;49.648;8.330;2023-05-02T05:49:21;56.75;;;46.95;;
11524;SDS011;5819;49.648;8.330;2023-05-02T05:51:49;57.83;;;46.17;;
11524;SDS011;5819;49.648;8.330;2023-05-02T05:54:18;63.33;;;50.05;;
11524;SDS011;5819;49.648;8.330;2023-05-02T05:56:46;62.28;;;48.33;;
11524;SDS011;5819;49.648;8.330;2023-05-02T05:59:17;59.10;;;47.95;;
11524;SDS011;5819;49.648;8.330;2023-05-02T06:01:47;61.40;;;48.78;;
11524;SDS011;5819;49.648;8.330;2023-05-02T06:04:19;61.22;;;49.38;;
11524;SDS011;5819;49.648;8.330;2023-05-02T06:06:49;64.45;;;49.95;;
11524;SDS011;5819;49.648;8.330;2023-05-02T06:09:19;61.50;;;47.85;;
11524;SDS011;5819;49.648;8.330;2023-05-02T06:11:47;65.35;;;49.47;;
11524;SDS011;5819;49.648;8.330;2023-05-02T06:14:15;63.28;;;49.72;;
11524;SDS011;5819;49.648;8.330;2023-05-02T06:16:45;58.83;;;47.00;;
11524;SDS011;5819;49.648;8.330;2023-05-02T06:19:14;63.03;;;48.80;;
11524;SDS011;5819;49.648;8.330;2023-05-02T06:21:42;60.83;;;47.78;;
11524;SDS011;5819;49.648;8.330;2023-05-02T06:24:11;62.45;;;49.53;;
11524;SDS011;5819;49.648;8.330;2023-05-02T06:26:39;63.00;;;49.47;;
11524;SDS011;5819;49.648;8.330;2023-05-02T06:29:06;59.22;;;46.88;;
11524;SDS011;5819;49.648;8.330;2023-05-02T06:31:36;61.60;;;48.55;;
11524;SDS011;5819;49.648;8.330;2023-05-02T06:34:06;58.88;;;47.25;;
11524;SDS011;5819;49.648;8.330;2023-05-02T06:36:37;62.13;;;48.72;;
11524;SDS011;5819;49.648;8.330;2023-05-02T06:39:05;60.40;;;48.65;;
11524;SDS011;5819;49.648;8.330;2023-05-02T06:41:33;64.90;;;49.35;;
11524;SDS011;5819;49.648;8.330;2023-05-02T06:44:01;61.63;;;48.13;;
11524;SDS011;5819;49.648;8.330;2023-05-02T06:46:29;59.03;;;48.08;;
11524;SDS011;5819;49.648;8.330;2023-05-02T06:48:57;60.53;;;48.67;;
11524;SDS011;5819;49.648;8.330;2023-05-02T06:51:25;61.53;;;47.88;;
11524;SDS011;5819;49.648;8.330;2023-05-02T06:53:54;59.00;;;46.58;;
11524;SDS011;5819;49.648;8.330;2023-05-02T06:56:21;58.90;;;46.72;;
11524;SDS011;5819;49.648;8.330;2023-05-02T06:58:50;60.22;;;46.45;;
11524;SDS011;5819;49.648;8.330;2023-05-02T07:01:18;57.35;;;46.85;;
11524;SDS011;5819;49.648;8.330;2023-05-02T07:03:46;57.42;;;47.22;;
11524;SDS011;5819;49.648;8.330;2023-05-02T07:06:14;58.22;;;46.25;;
11524;SDS011;5819;49.648;8.330;2023-05-02T07:08:42;56.08;;;46.53;;
11524;SDS011;5819;49.648;8.330;2023-05-02T07:11:11;62.22;;;48.10;;
11524;SDS011;5819;49.648;8.330;2023-05-02T07:13:40;58.53;;;46.78;;
11524;SDS011;5819;49.648;8.330;2023-05-02T07:16:07;58.92;;;46.88;;
11524;SDS011;5819;49.648;8.330;2023-05-02T07:18:35;59.30;;;47.15;;
11524;SDS011;5819;49.648;8.330;2023-05-02T07:21:03;57.45;;;46.75;;
11524;SDS011;5819;49.648;8.330;2023-05-02T07:23:31;57.10;;;44.95;;
11524;SDS011;5819;49.648;8.330;2023-05-02T07:25:59;59.95;;;47.10;;
11524;SDS011;5819;49.648;8.330;2023-05-02T07:28:30;56.72;;;44.88;;
11524;SDS011;5819;49.648;8.330;2023-05-02T07:30:58;56.33;;;44.38;;
11524;SDS011;5819;49.648;8.330;2023-05-02T07:33:26;50.90;;;42.03;;
11524;SDS011;5819;49.648;8.330;2023-05-02T07:35:54;50.63;;;41.90;;
11524;SDS011;5819;49.648;8.330;2023-05-02T07:38:22;51.10;;;42.35;;
11524;SDS011;5819;49.648;8.330;2023-05-02T07:40:50;51.95;;;42.22;;
11524;SDS011;5819;49.648;8.330;2023-05-02T07:43:18;50.60;;;41.58;;
11524;SDS011;5819;49.648;8.330;2023-05-02T07:45:48;48.67;;;41.38;;
11524;SDS011;5819;49.648;8.330;2023-05-02T07:48:16;51.90;;;42.03;;
11524;SDS011;5819;49.648;8.330;2023-05-02T07:50:44;48.42;;;39.42;;
11524;SDS011;5819;49.648;8.330;2023-05-02T07:53:12;50.75;;;40.55;;
11524;SDS011;5819;49.648;8.330;2023-05-02T07:55:40;49.40;;;40.63;;
11524;SDS011;5819;49.648;8.330;2023-05-02T07:58:07;48.72;;;40.72;;
11524;SDS011;5819;49.648;8.330;2023-05-02T08:00:35;48.83;;;40.17;;
11524;SDS011;5819;49.648;8.330;2023-05-02T08:03:04;46.67;;;39.40;;
11524;SDS011;5819;49.648;8.330;2023-05-02T08:05:33;48.90;;;39.20;;
11524;SDS011;5819;49.648;8.330;2023-05-02T08:08:01;47.00;;;39.50;;
11524;SDS011;5819;49.648;8.330;2023-05-02T08:10:29;46.28;;;37.85;;
11524;SDS011;5819;49.648;8.330;2023-05-02T08:12:57;45.03;;;38.40;;
11524;SDS011;5819;49.648;8.330;2023-05-02T08:15:24;44.95;;;38.58;;
11524;SDS011;5819;49.648;8.330;2023-05-02T08:17:52;47.58;;;37.90;;
11524;SDS011;5819;49.648;8.330;2023-05-02T08:20:21;44.35;;;36.40;;
11524;SDS011;5819;49.648;8.330;2023-05-02T08:22:49;42.20;;;35.42;;
11524;SDS011;5819;49.648;8.330;2023-05-02T08:25:17;41.33;;;33.50;;
11524;SDS011;5819;49.648;8.330;2023-05-02T08:27:45;41.80;;;34.78;;
11524;SDS011;5819;49.648;8.330;2023-05-02T08:30:13;42.38;;;34.85;;
11524;SDS011;5819;49.648;8.330;2023-05-02T08:32:41;40.17;;;33.88;;
11524;SDS011;5819;49.648;8.330;2023-05-02T08:35:09;42.75;;;35.15;;
11524;SDS011;5819;49.648;8.330;2023-05-02T08:37:39;36.85;;;30.75;;
11524;SDS011;5819;49.648;8.330;2023-05-02T08:40:07;37.03;;;31.75;;
11524;SDS011;5819;49.648;8.330;2023-05-02T08:42:40;41.45;;;33.58;;
11524;SDS011;5819;49.648;8.330;2023-05-02T08:45:10;38.75;;;32.42;;
11524;SDS011;5819;49.648;8.330;2023-05-02T08:47:42;40.38;;;32.88;;
11524;SDS011;5819;49.648;8.330;2023-05-02T08:50:13;39.78;;;31.92;;
11524;SDS011;5819;49.648;8.330;2023-05-02T08:52:46;37.95;;;31.00;;
11524;SDS011;5819;49.648;8.330;2023-05-02T08:55:17;38.72;;;31.27;;
11524;SDS011;5819;49.648;8.330;2023-05-02T08:57:53;36.10;;;28.48;;
11524;SDS011;5819;49.648;8.330;2023-05-02T09:00:24;36.00;;;28.73;;
11524;SDS011;5819;49.648;8.330;2023-05-02T09:02:55;35.90;;;28.58;;
11524;SDS011;5819;49.648;8.330;2023-05-02T09:05:32;34.58;;;27.88;;
11524;SDS011;5819;49.648;8.330;2023-05-02T09:08:08;33.28;;;26.95;;
11524;SDS011;5819;49.648;8.330;2023-05-02T09:10:35;35.35;;;26.75;;
11524;SDS011;5819;49.648;8.330;2023-05-02T09:16:01;32.50;;;25.95;;
11524;SDS011;5819;49.648;8.330;2023-05-02T09:18:31;31.08;;;25.33;;
11524;SDS011;5819;49.648;8.330;2023-05-02T09:21:03;34.63;;;25.70;;
11524;SDS011;5819;49.648;8.330;2023-05-02T09:23:36;32.75;;;24.83;;
11524;SDS011;5819;49.648;8.330;2023-05-02T09:26:09;29.85;;;23.38;;
11524;SDS011;5819;49.648;8.330;2023-05-02T09:28:39;36.85;;;24.85;;
11524;SDS011;5819;49.648;8.330;2023-05-02T09:31:09;32.97;;;25.10;;
11524;SDS011;5819;49.648;8.330;2023-05-02T09:33:39;31.45;;;24.63;;
11524;SDS011;5819;49.648;8.330;2023-05-02T09:36:08;33.17;;;25.00;;
11524;SDS011;5819;49.648;8.330;2023-05-02T09:38:38;32.30;;;25.50;;
11524;SDS011;5819;49.648;8.330;2023-05-02T09:41:07;33.53;;;25.77;;
11524;SDS011;5819;49.648;8.330;2023-05-02T09:43:35;31.33;;;23.77;;
11524;SDS011;5819;49.648;8.330;2023-05-02T09:46:03;31.27;;;22.08;;
11524;SDS011;5819;49.648;8.330;2023-05-02T09:48:33;31.65;;;24.10;;
11524;SDS011;5819;49.648;8.330;2023-05-02T09:51:18;29.00;;;22.08;;
11524;SDS011;5819;49.648;8.330;2023-05-02T09:53:48;27.58;;;20.73;;
11524;SDS011;5819;49.648;8.330;2023-05-02T09:56:17;24.63;;;17.95;;
11524;SDS011;5819;49.648;8.330;2023-05-02T09:58:45;24.52;;;18.35;;
11524;SDS011;5819;49.648;8.330;2023-05-02T10:01:14;24.88;;;16.85;;
11524;SDS011;5819;49.648;8.330;2023-05-02T10:03:44;23.70;;;17.20;;
11524;SDS011;5819;49.648;8.330;2023-05-02T10:06:14;22.60;;;15.73;;
11524;SDS011;5819;49.648;8.330;2023-05-02T10:08:43;22.17;;;16.52;;
11524;SDS011;5819;49.648;8.330;2023-05-02T10:11:14;22.92;;;17.13;;
11524;SDS011;5819;49.648;8.330;2023-05-02T10:13:42;18.70;;;15.13;;
11524;SDS011;5819;49.648;8.330;2023-05-02T10:16:11;20.98;;;15.13;;
11524;SDS011;5819;49.648;8.330;2023-05-02T10:18:40;19.30;;;15.85;;
11524;SDS011;5819;49.648;8.330;2023-05-02T10:21:12;21.35;;;15.73;;
11524;SDS011;5819;49.648;8.330;2023-05-02T10:23:43;21.50;;;15.95;;
11524;SDS011;5819;49.648;8.330;2023-05-02T10:26:13;19.48;;;15.88;;
11524;SDS011;5819;49.648;8.330;2023-05-02T10:28:42;22.73;;;16.58;;
11524;SDS011;5819;49.648;8.330;2023-05-02T10:31:12;20.98;;;15.80;;
11524;SDS011;5819;49.648;8.330;2023-05-02T10:33:41;23.30;;;16.75;;
11524;SDS011;5819;49.648;8.330;2023-05-02T10:36:10;21.13;;;15.90;;
11524;SDS011;5819;49.648;8.330;2023-05-02T10:38:39;18.05;;;13.35;;
11524;SDS011;5819;49.648;8.330;2023-05-02T10:41:09;16.88;;;12.95;;
11524;SDS011;5819;49.648;8.330;2023-05-02T10:43:44;19.25;;;13.85;;
11524;SDS011;5819;49.648;8.330;2023-05-02T10:46:30;16.85;;;11.43;;
11524;SDS011;5819;49.648;8.330;2023-05-02T10:49:00;12.48;;;10.05;;
11524;SDS011;5819;49.648;8.330;2023-05-02T10:51:30;13.10;;;10.75;;
11524;SDS011;5819;49.648;8.330;2023-05-02T10:54:17;13.98;;;9.23;;
11524;SDS011;5819;49.648;8.330;2023-05-02T10:57:00;10.68;;;8.63;;
11524;SDS011;5819;49.648;8.330;2023-05-02T10:59:31;11.32;;;9.10;;
11524;SDS011;5819;49.648;8.330;2023-05-02T11:02:02;10.48;;;8.90;;
11524;SDS011;5819;49.648;8.330;2023-05-02T11:07:27;13.90;;;8.68;;
11524;SDS011;5819;49.648;8.330;2023-05-02T11:12:53;13.82;;;10.55;;
11524;SDS011;5819;49.648;8.330;2023-05-02T11:18:23;12.60;;;9.68;;
11524;SDS011;5819;49.648;8.330;2023-05-02T11:20:52;11.40;;;9.70;;
11524;SDS011;5819;49.648;8.330;2023-05-02T11:29:57;12.18;;;10.10;;
11524;SDS011;5819;49.648;8.330;2023-05-02T11:35:34;10.95;;;7.78;;
11524;SDS011;5819;49.648;8.330;2023-05-02T11:38:03;8.43;;;7.38;;
11524;SDS011;5819;49.648;8.330;2023-05-02T11:40:33;9.70;;;8.05;;
11524;SDS011;5819;49.648;8.330;2023-05-02T11:43:10;11.00;;;7.95;;
11524;SDS011;5819;49.648;8.330;2023-05-02T11:45:39;10.93;;;9.20;;
11524;SDS011;5819;49.648;8.330;2023-05-02T11:48:10;12.85;;;9.60;;
11524;SDS011;5819;49.648;8.330;2023-05-02T11:50:42;11.98;;;9.10;;
11524;SDS011;5819;49.648;8.330;2023-05-02T11:53:16;10.68;;;9.32;;
11524;SDS011;5819;49.648;8.330;2023-05-02T11:55:45;12.80;;;9.68;;
11524;SDS011;5819;49.648;8.330;2023-05-02T11:58:15;14.00;;;10.02;;
11524;SDS011;5819;49.648;8.330;2023-05-02T12:00:44;10.80;;;8.68;;
11524;SDS011;5819;49.648;8.330;2023-05-02T12:03:25;11.70;;;9.32;;
11524;SDS011;5819;49.648;8.330;2023-05-02T12:05:55;12.07;;;9.15;;
11524;SDS011;5819;49.648;8.330;2023-05-02T12:08:24;11.82;;;9.80;;
11524;SDS011;5819;49.648;8.330;2023-05-02T12:10:54;13.73;;;8.57;;
11524;SDS011;5819;49.648;8.330;2023-05-02T12:13:23;10.63;;;7.85;;
11524;SDS011;5819;49.648;8.330;2023-05-02T12:15:52;12.80;;;8.85;;
11524;SDS011;5819;49.648;8.330;2023-05-02T12:18:22;10.57;;;8.55;;
11524;SDS011;5819;49.648;8.330;2023-05-02T12:20:54;9.80;;;7.60;;
11524;SDS011;5819;49.648;8.330;2023-05-02T12:23:23;7.45;;;5.72;;
11524;SDS011;5819;49.648;8.330;2023-05-02T12:25:52;8.85;;;6.97;;
11524;SDS011;5819;49.648;8.330;2023-05-02T12:28:20;7.32;;;6.32;;
11524;SDS011;5819;49.648;8.330;2023-05-02T12:30:50;12.25;;;7.63;;
11524;SDS011;5819;49.648;8.330;2023-05-02T12:33:18;7.80;;;6.57;;
11524;SDS011;5819;49.648;8.330;2023-05-02T12:35:47;9.25;;;7.40;;
11524;SDS011;5819;49.648;8.330;2023-05-02T12:38:17;9.88;;;8.77;;
11524;SDS011;5819;49.648;8.330;2023-05-02T12:40:48;9.10;;;7.68;;
11524;SDS011;5819;49.648;8.330;2023-05-02T12:43:18;8.77;;;7.03;;
11524;SDS011;5819;49.648;8.330;2023-05-02T12:45:47;9.38;;;6.68;;
11524;SDS011;5819;49.648;8.330;2023-05-02T12:48:21;6.38;;;5.53;;
11524;SDS011;5819;49.648;8.330;2023-05-02T12:50:52;8.00;;;5.97;;
11524;SDS011;5819;49.648;8.330;2023-05-02T12:53:37;7.35;;;6.38;;
11524;SDS011;5819;49.648;8.330;2023-05-02T12:56:07;7.63;;;6.85;;
11524;SDS011;5819;49.648;8.330;2023-05-02T12:58:42;9.90;;;7.15;;
11524;SDS011;5819;49.648;8.330;2023-05-02T13:01:11;9.05;;;7.25;;
11524;SDS011;5819;49.648;8.330;2023-05-02T13:03:41;8.05;;;7.25;;
11524;SDS011;5819;49.648;8.330;2023-05-02T13:06:12;7.30;;;6.43;;
11524;SDS011;5819;49.648;8.330;2023-05-02T13:08:40;7.35;;;6.32;;
11524;SDS011;5819;49.648;8.330;2023-05-02T13:11:08;7.43;;;6.20;;
11524;SDS011;5819;49.648;8.330;2023-05-02T13:13:35;8.30;;;6.68;;
11524;SDS011;5819;49.648;8.330;2023-05-02T13:16:03;7.85;;;6.47;;
11524;SDS011;5819;49.648;8.330;2023-05-02T13:18:32;10.77;;;7.18;;
11524;SDS011;5819;49.648;8.330;2023-05-02T13:21:00;8.77;;;6.80;;
11524;SDS011;5819;49.648;8.330;2023-05-02T13:23:29;8.98;;;6.43;;
11524;SDS011;5819;49.648;8.330;2023-05-02T13:25:57;8.25;;;6.63;;
11524;SDS011;5819;49.648;8.330;2023-05-02T13:28:24;7.72;;;6.50;;
11524;SDS011;5819;49.648;8.330;2023-05-02T13:30:52;5.13;;;4.63;;
11524;SDS011;5819;49.648;8.330;2023-05-02T13:33:20;4.40;;;3.60;;
11524;SDS011;5819;49.648;8.330;2023-05-02T13:35:49;6.00;;;3.70;;
11524;SDS011;5819;49.648;8.330;2023-05-02T13:38:17;3.55;;;3.05;;
11524;SDS011;5819;49.648;8.330;2023-05-02T13:40:46;4.95;;;3.20;;
11524;SDS011;5819;49.648;8.330;2023-05-02T13:43:13;4.25;;;2.97;;
11524;SDS011;5819;49.648;8.330;2023-05-02T13:45:42;5.43;;;3.65;;
11524;SDS011;5819;49.648;8.330;2023-05-02T13:48:10;3.95;;;3.13;;
11524;SDS011;5819;49.648;8.330;2023-05-02T13:50:39;3.22;;;2.78;;
11524;SDS011;5819;49.648;8.330;2023-05-02T13:53:07;3.47;;;3.17;;
11524;SDS011;5819;49.648;8.330;2023-05-02T13:55:35;4.57;;;3.03;;
11524;SDS011;5819;49.648;8.330;2023-05-02T13:58:04;4.30;;;3.13;;
11524;SDS011;5819;49.648;8.330;2023-05-02T14:00:32;8.13;;;3.88;;
11524;SDS011;5819;49.648;8.330;2023-05-02T14:03:00;4.15;;;3.40;;
11524;SDS011;5819;49.648;8.330;2023-05-02T14:05:28;4.80;;;3.85;;
11524;SDS011;5819;49.648;8.330;2023-05-02T14:07:56;4.85;;;3.80;;
11524;SDS011;5819;49.648;8.330;2023-05-02T14:10:24;5.80;;;4.18;;
11524;SDS011;5819;49.648;8.330;2023-05-02T14:12:52;4.95;;;4.10;;
11524;SDS011;5819;49.648;8.330;2023-05-02T14:15:22;6.55;;;3.55;;
11524;SDS011;5819;49.648;8.330;2023-05-02T14:17:49;4.05;;;3.55;;
11524;SDS011;5819;49.648;8.330;2023-05-02T14:20:17;4.38;;;3.92;;
11524;SDS011;5819;49.648;8.330;2023-05-02T14:22:45;4.88;;;3.15;;
11524;SDS011;5819;49.648;8.330;2023-05-02T14:25:13;3.97;;;3.22;;
11524;SDS011;5819;49.648;8.330;2023-05-02T14:27:45;4.30;;;3.20;;
11524;SDS011;5819;49.648;8.330;2023-05-02T14:30:13;3.85;;;3.45;;
11524;SDS011;5819;49.648;8.330;2023-05-02T14:32:43;5.00;;;4.05;;
11524;SDS011;5819;49.648;8.330;2023-05-02T14:35:10;4.40;;;4.00;;
11524;SDS011;5819;49.648;8.330;2023-05-02T14:37:38;4.00;;;3.60;;
11524;SDS011;5819;49.648;8.330;2023-05-02T14:40:07;5.80;;;4.60;;
11524;SDS011;5819;49.648;8.330;2023-05-02T14:42:35;5.53;;;4.53;;
11524;SDS011;5819;49.648;8.330;2023-05-02T14:45:03;5.18;;;4.43;;
11524;SDS011;5819;49.648;8.330;2023-05-02T14:47:32;5.15;;;3.90;;
11524;SDS011;5819;49.648;8.330;2023-05-02T14:50:02;5.75;;;4.40;;
11524;SDS011;5819;49.648;8.330;2023-05-02T14:52:31;4.47;;;4.05;;
11524;SDS011;5819;49.648;8.330;2023-05-02T14:54:59;6.15;;;4.03;;
11524;SDS011;5819;49.648;8.330;2023-05-02T14:57:27;3.80;;;3.40;;
11524;SDS011;5819;49.648;8.330;2023-05-02T14:59:55;4.22;;;3.67;;
11524;SDS011;5819;49.648;8.330;2023-05-02T15:02:24;5.10;;;4.30;;
11524;SDS011;5819;49.648;8.330;2023-05-02T15:04:53;5.28;;;4.30;;
11524;SDS011;5819;49.648;8.330;2023-05-02T15:07:24;4.28;;;3.78;;
11524;SDS011;5819;49.648;8.330;2023-05-02T15:09:52;7.22;;;4.32;;
11524;SDS011;5819;49.648;8.330;2023-05-02T15:12:21;5.00;;;4.40;;
11524;SDS011;5819;49.648;8.330;2023-05-02T15:14:50;4.30;;;3.75;;
11524;SDS011;5819;49.648;8.330;2023-05-02T15:17:18;4.78;;;3.88;;
11524;SDS011;5819;49.648;8.330;2023-05-02T15:19:46;4.10;;;3.70;;
11524;SDS011;5819;49.648;8.330;2023-05-02T15:22:14;6.40;;;4.13;;